sensor_id;sensor_type;location;lat;lon;timestamp;pressure;altitude;pressure_sealevel;temperature;humidity
43161;BME280;40968;52.342;5.528;2023-12-14T00:00:12;100993.00;;;5.40;90.42
43161;BME280;40968;52.342;5.528;2023-12-14T00:02:40;100729.94;;;3.80;90.01
43161;BME280;40968;52.342;5.528;2023-12-14T00:05:07;100771.56;;;3.97;90.12
43161;BME280;40968;52.342;5.528;2023-12-14T00:07:33;100869.72;;;4.53;90.01
43161;BME280;40968;52.342;5.528;2023-12-14T00:10:00;100868.03;;;4.52;90.17
43161;BME280;40968;52.342;5.528;2023-12-14T00:12:26;100870.44;;;4.57;89.99
43161;BME280;40968;52.342;5.528;2023-12-14T00:14:53;100865.50;;;4.49;89.97
43161;BME280;40968;52.342;5.528;2023-12-14T00:17:19;100882.06;;;4.54;89.84
43161;BME280;40968;52.342;5.528;2023-12-14T00:19:47;100959.97;;;5.09;89.87
43161;BME280;40968;52.342;5.528;2023-12-14T00:22:14;100844.78;;;4.38;89.56
43161;BME280;40968;52.342;5.528;2023-12-14T00:24:41;101059.47;;;5.57;89.46
43161;BME280;40968;52.342;5.528;2023-12-14T00:27:08;100843.44;;;4.29;88.97
43161;BME280;40968;52.342;5.528;2023-12-14T00:29:36;100855.13;;;4.25;89.00
43161;BME280;40968;52.342;5.528;2023-12-14T00:32:07;101068.53;;;5.53;89.13
43161;BME280;40968;52.342;5.528;2023-12-14T00:34:33;101054.91;;;5.42;89.22
43161;BME280;40968;52.342;5.528;2023-12-14T00:37:02;101051.47;;;5.40;89.11
43161;BME280;40968;52.342;5.528;2023-12-14T00:39:29;100901.97;;;4.45;88.90
43161;BME280;40968;52.342;5.528;2023-12-14T00:41:55;101075.06;;;5.46;89.13
43161;BME280;40968;52.342;5.528;2023-12-14T00:44:22;100901.75;;;4.31;89.17
43161;BME280;40968;52.342;5.528;2023-12-14T00:46:49;101097.28;;;5.45;89.12
43161;BME280;40968;52.342;5.528;2023-12-14T00:49:15;100930.13;;;4.48;89.13
43161;BME280;40968;52.342;5.528;2023-12-14T00:51:43;101093.69;;;5.46;89.15
43161;BME280;40968;52.342;5.528;2023-12-14T00:54:11;101086.97;;;5.39;88.94
43161;BME280;40968;52.342;5.528;2023-12-14T00:56:38;100942.78;;;4.43;88.86
43161;BME280;40968;52.342;5.528;2023-12-14T00:59:04;100941.81;;;4.44;88.75
43161;BME280;40968;52.342;5.528;2023-12-14T01:01:31;100915.31;;;4.25;88.61
43161;BME280;40968;52.342;5.528;2023-12-14T01:03:57;100888.97;;;4.01;88.34
43161;BME280;40968;52.342;5.528;2023-12-14T01:06:24;101081.66;;;5.20;88.71
43161;BME280;40968;52.342;5.528;2023-12-14T01:08:51;101107.59;;;5.34;88.94
43161;BME280;40968;52.342;5.528;2023-12-14T01:11:19;100956.66;;;4.48;88.71
43161;BME280;40968;52.342;5.528;2023-12-14T01:13:47;101099.03;;;5.27;88.61
43161;BME280;40968;52.342;5.528;2023-12-14T01:16:17;101150.31;;;5.48;88.48
43161;BME280;40968;52.342;5.528;2023-12-14T01:18:45;100954.09;;;4.27;88.36
43161;BME280;40968;52.342;5.528;2023-12-14T01:21:11;100978.19;;;4.42;88.94
43161;BME280;40968;52.342;5.528;2023-12-14T01:23:38;100999.13;;;4.48;88.54
43161;BME280;40968;52.342;5.528;2023-12-14T01:26:05;101126.31;;;5.30;88.73
43161;BME280;40968;52.342;5.528;2023-12-14T01:28:32;101152.16;;;5.46;88.72
43161;BME280;40968;52.342;5.528;2023-12-14T01:30:59;100892.25;;;3.87;88.52
43161;BME280;40968;52.342;5.528;2023-12-14T01:33:26;100866.72;;;3.65;88.28
43161;BME280;40968;52.342;5.528;2023-12-14T01:35:52;101173.22;;;5.51;88.40
43161;BME280;40968;52.342;5.528;2023-12-14T01:38:19;101145.44;;;5.39;88.46
43161;BME280;40968;52.342;5.528;2023-12-14T01:40:45;101008.75;;;4.51;88.29
43161;BME280;40968;52.342;5.528;2023-12-14T01:43:12;101073.94;;;4.96;88.43
43161;BME280;40968;52.342;5.528;2023-12-14T01:45:40;101170.50;;;5.52;88.05
43161;BME280;40968;52.342;5.528;2023-12-14T01:48:06;100986.25;;;4.40;88.08
43161;BME280;40968;52.342;5.528;2023-12-14T01:50:33;101045.34;;;4.63;88.08
43161;BME280;40968;52.342;5.528;2023-12-14T01:52:59;100914.47;;;3.85;87.85
43161;BME280;40968;52.342;5.528;2023-12-14T01:55:26;101065.53;;;4.67;88.25
43161;BME280;40968;52.342;5.528;2023-12-14T01:57:52;100978.84;;;4.07;88.18
43161;BME280;40968;52.342;5.528;2023-12-14T02:00:29;101137.16;;;5.07;88.33
43161;BME280;40968;52.342;5.528;2023-12-14T02:03:02;101214.97;;;5.48;88.40
43161;BME280;40968;52.342;5.528;2023-12-14T02:05:29;101215.84;;;5.49;88.57
43161;BME280;40968;52.342;5.528;2023-12-14T02:07:55;100952.31;;;3.88;88.46
43161;BME280;40968;52.342;5.528;2023-12-14T02:10:23;101028.09;;;4.34;88.52
43161;BME280;40968;52.342;5.528;2023-12-14T02:12:49;101222.28;;;5.43;88.36
43161;BME280;40968;52.342;5.528;2023-12-14T02:15:16;101027.66;;;4.24;88.19
43161;BME280;40968;52.342;5.528;2023-12-14T02:17:42;100971.72;;;3.89;88.21
43161;BME280;40968;52.342;5.528;2023-12-14T02:20:10;101233.66;;;5.47;88.25
43161;BME280;40968;52.342;5.528;2023-12-14T02:22:49;101205.81;;;5.16;88.19
43161;BME280;40968;52.342;5.528;2023-12-14T02:25:16;101101.88;;;4.46;88.00
43161;BME280;40968;52.342;5.528;2023-12-14T02:27:43;101225.31;;;5.17;88.03
43161;BME280;40968;52.342;5.528;2023-12-14T02:30:10;101227.81;;;5.20;88.08
43161;BME280;40968;52.342;5.528;2023-12-14T02:32:37;101086.88;;;4.24;87.97
43161;BME280;40968;52.342;5.528;2023-12-14T02:35:05;100973.25;;;3.53;88.22
43161;BME280;40968;52.342;5.528;2023-12-14T02:37:32;101103.09;;;4.18;88.38
43161;BME280;40968;52.342;5.528;2023-12-14T02:40:00;101211.63;;;4.86;88.81
43161;BME280;40968;52.342;5.528;2023-12-14T02:42:27;101248.75;;;5.07;88.96
43161;BME280;40968;52.342;5.528;2023-12-14T02:44:53;101167.00;;;4.53;89.06
43161;BME280;40968;52.342;5.528;2023-12-14T02:47:20;101105.84;;;4.15;89.33
43161;BME280;40968;52.342;5.528;2023-12-14T02:49:47;101110.97;;;4.20;89.30
43161;BME280;40968;52.342;5.528;2023-12-14T02:52:13;101103.13;;;4.17;89.48
43161;BME280;40968;52.342;5.528;2023-12-14T02:54:40;101095.31;;;4.13;89.23
43161;BME280;40968;52.342;5.528;2023-12-14T02:57:08;101295.63;;;5.28;89.30
43161;BME280;40968;52.342;5.528;2023-12-14T02:59:35;101125.09;;;4.20;89.26
43161;BME280;40968;52.342;5.528;2023-12-14T03:02:02;101303.75;;;5.25;89.53
43161;BME280;40968;52.342;5.528;2023-12-14T03:04:28;100913.94;;;2.94;89.28
43161;BME280;40968;52.342;5.528;2023-12-14T03:06:55;101301.88;;;5.27;89.35
43161;BME280;40968;52.342;5.528;2023-12-14T03:09:22;101136.91;;;4.13;89.05
43161;BME280;40968;52.342;5.528;2023-12-14T03:11:49;101213.53;;;4.62;89.05
43161;BME280;40968;52.342;5.528;2023-12-14T03:14:18;101084.22;;;3.83;88.32
43161;BME280;40968;52.342;5.528;2023-12-14T03:16:52;101258.88;;;4.78;88.47
43161;BME280;40968;52.342;5.528;2023-12-14T03:19:19;101059.00;;;3.52;88.07
43161;BME280;40968;52.342;5.528;2023-12-14T03:21:45;101149.28;;;4.12;88.23
43161;BME280;40968;52.342;5.528;2023-12-14T03:24:12;101242.56;;;4.67;88.16
43161;BME280;40968;52.342;5.528;2023-12-14T03:26:39;101144.97;;;4.10;87.49
43161;BME280;40968;52.342;5.528;2023-12-14T03:29:05;101115.84;;;3.88;87.54
43161;BME280;40968;52.342;5.528;2023-12-14T03:31:34;101280.78;;;4.83;87.45
43161;BME280;40968;52.342;5.528;2023-12-14T03:34:01;101159.13;;;4.10;87.77
43161;BME280;40968;52.342;5.528;2023-12-14T03:36:28;101317.56;;;5.13;87.43
43161;BME280;40968;52.342;5.528;2023-12-14T03:38:55;101057.09;;;3.56;87.09
43161;BME280;40968;52.342;5.528;2023-12-14T03:41:22;101133.16;;;3.96;87.46
43161;BME280;40968;52.342;5.528;2023-12-14T03:43:48;101112.19;;;3.90;87.36
43161;BME280;40968;52.342;5.528;2023-12-14T03:46:15;101190.63;;;4.39;87.55
43161;BME280;40968;52.342;5.528;2023-12-14T03:48:44;101092.69;;;3.71;87.07
43161;BME280;40968;52.342;5.528;2023-12-14T03:51:17;101130.50;;;3.96;87.47
43161;BME280;40968;52.342;5.528;2023-12-14T03:53:44;101245.22;;;4.67;87.47
43161;BME280;40968;52.342;5.528;2023-12-14T03:56:11;101210.56;;;4.28;87.22
43161;BME280;40968;52.342;5.528;2023-12-14T03:58:37;101145.50;;;3.97;87.34
43161;BME280;40968;52.342;5.528;2023-12-14T04:01:04;101339.75;;;5.12;87.30
43161;BME280;40968;52.342;5.528;2023-12-14T04:03:31;101339.75;;;5.12;87.54
43161;BME280;40968;52.342;5.528;2023-12-14T04:05:59;101344.22;;;5.11;87.46
43161;BME280;40968;52.342;5.528;2023-12-14T04:08:26;101322.63;;;4.98;87.54
43161;BME280;40968;52.342;5.528;2023-12-14T04:10:53;101150.53;;;3.83;87.37
43161;BME280;40968;52.342;5.528;2023-12-14T04:13:19;101359.31;;;5.11;87.47
43161;BME280;40968;52.342;5.528;2023-12-14T04:15:46;101302.50;;;4.72;87.86
43161;BME280;40968;52.342;5.528;2023-12-14T04:18:13;101358.91;;;5.00;87.55
43161;BME280;40968;52.342;5.528;2023-12-14T04:20:39;101341.53;;;4.91;87.66
43161;BME280;40968;52.342;5.528;2023-12-14T04:23:07;100954.38;;;2.53;87.03
43161;BME280;40968;52.342;5.528;2023-12-14T04:25:34;101112.44;;;3.41;86.93
43161;BME280;40968;52.342;5.528;2023-12-14T04:28:00;101241.28;;;4.12;87.16
43161;BME280;40968;52.342;5.528;2023-12-14T04:30:27;101181.66;;;3.78;87.23
43161;BME280;40968;52.342;5.528;2023-12-14T04:32:53;101226.00;;;3.96;87.13
43161;BME280;40968;52.342;5.528;2023-12-14T04:35:20;101359.09;;;4.73;87.52
43161;BME280;40968;52.342;5.528;2023-12-14T04:37:47;101407.50;;;5.02;87.82
43161;BME280;40968;52.342;5.528;2023-12-14T04:40:17;101217.50;;;3.88;87.68
43161;BME280;40968;52.342;5.528;2023-12-14T04:42:44;101422.66;;;5.00;87.72
43161;BME280;40968;52.342;5.528;2023-12-14T04:45:10;101357.78;;;4.62;87.43
43161;BME280;40968;52.342;5.528;2023-12-14T04:47:38;101202.56;;;3.63;87.60
43161;BME280;40968;52.342;5.528;2023-12-14T04:50:05;101262.13;;;3.99;87.87
43161;BME280;40968;52.342;5.528;2023-12-14T04:52:32;101218.25;;;3.68;87.35
43161;BME280;40968;52.342;5.528;2023-12-14T04:54:59;101162.28;;;3.31;86.92
43161;BME280;40968;52.342;5.528;2023-12-14T04:57:27;101260.16;;;3.82;86.62
43161;BME280;40968;52.342;5.528;2023-12-14T04:59:53;101450.66;;;4.86;85.25
43161;BME280;40968;52.342;5.528;2023-12-14T05:02:20;101306.53;;;3.94;84.18
43161;BME280;40968;52.342;5.528;2023-12-14T05:04:46;101124.66;;;2.76;84.08
43161;BME280;40968;52.342;5.528;2023-12-14T05:07:13;101274.69;;;3.72;84.62
43161;BME280;40968;52.342;5.528;2023-12-14T05:09:40;101297.28;;;3.82;84.49
43161;BME280;40968;52.342;5.528;2023-12-14T05:12:07;101141.78;;;2.89;84.30
43161;BME280;40968;52.342;5.528;2023-12-14T05:14:35;101459.78;;;4.79;84.62
43161;BME280;40968;52.342;5.528;2023-12-14T05:17:01;101286.09;;;3.74;84.31
43161;BME280;40968;52.342;5.528;2023-12-14T05:19:28;101370.34;;;4.13;84.62
43161;BME280;40968;52.342;5.528;2023-12-14T05:21:55;101321.25;;;3.79;84.63
43161;BME280;40968;52.342;5.528;2023-12-14T05:24:21;101510.78;;;4.87;83.81
43161;BME280;40968;52.342;5.528;2023-12-14T05:26:48;101448.13;;;4.37;82.97
43161;BME280;40968;52.342;5.528;2023-12-14T05:29:15;101293.38;;;3.45;83.24
43161;BME280;40968;52.342;5.528;2023-12-14T05:31:43;101348.97;;;3.70;83.38
43161;BME280;40968;52.342;5.528;2023-12-14T05:34:10;101350.88;;;3.67;83.52
43161;BME280;40968;52.342;5.528;2023-12-14T05:36:36;101531.84;;;4.70;83.78
43161;BME280;40968;52.342;5.528;2023-12-14T05:39:03;101316.47;;;3.41;83.98
43161;BME280;40968;52.342;5.528;2023-12-14T05:41:29;101325.19;;;3.45;83.88
43161;BME280;40968;52.342;5.528;2023-12-14T05:43:56;101361.94;;;3.54;83.55
43161;BME280;40968;52.342;5.528;2023-12-14T05:46:23;101383.03;;;3.57;83.58
43161;BME280;40968;52.342;5.528;2023-12-14T05:48:52;101554.06;;;4.67;83.36
43161;BME280;40968;52.342;5.528;2023-12-14T05:51:28;101471.88;;;4.18;83.22
43161;BME280;40968;52.342;5.528;2023-12-14T05:53:55;101568.09;;;4.71;83.25
43161;BME280;40968;52.342;5.528;2023-12-14T05:56:22;101571.56;;;4.73;83.27
43161;BME280;40968;52.342;5.528;2023-12-14T05:58:49;101295.38;;;3.14;83.20
43161;BME280;40968;52.342;5.528;2023-12-14T06:01:16;101570.63;;;4.74;83.33
43161;BME280;40968;52.342;5.528;2023-12-14T06:03:43;101295.66;;;3.05;83.00
43161;BME280;40968;52.342;5.528;2023-12-14T06:06:12;101575.25;;;4.69;83.31
43161;BME280;40968;52.342;5.528;2023-12-14T06:08:39;101406.03;;;3.57;83.56
43161;BME280;40968;52.342;5.528;2023-12-14T06:11:06;101413.44;;;3.47;83.32
43161;BME280;40968;52.342;5.528;2023-12-14T06:13:34;101565.69;;;4.41;83.06
43161;BME280;40968;52.342;5.528;2023-12-14T06:16:01;101364.19;;;3.16;82.76
43161;BME280;40968;52.342;5.528;2023-12-14T06:18:28;101597.88;;;4.55;82.54
43161;BME280;40968;52.342;5.528;2023-12-14T06:20:55;101381.50;;;3.26;82.33
43161;BME280;40968;52.342;5.528;2023-12-14T06:23:23;101584.13;;;4.44;82.55
43161;BME280;40968;52.342;5.528;2023-12-14T06:25:50;101416.91;;;3.49;82.69
43161;BME280;40968;52.342;5.528;2023-12-14T06:28:17;101399.47;;;3.42;82.68
43161;BME280;40968;52.342;5.528;2023-12-14T06:30:44;101479.19;;;3.86;83.13
43161;BME280;40968;52.342;5.528;2023-12-14T06:33:10;101434.09;;;3.62;82.73
43161;BME280;40968;52.342;5.528;2023-12-14T06:35:37;101276.75;;;2.65;82.23
43161;BME280;40968;52.342;5.528;2023-12-14T06:38:04;101435.44;;;3.49;81.97
43161;BME280;40968;52.342;5.528;2023-12-14T06:40:32;101356.88;;;2.97;82.23
43161;BME280;40968;52.342;5.528;2023-12-14T06:42:58;101411.16;;;3.36;82.51
43161;BME280;40968;52.342;5.528;2023-12-14T06:45:25;101437.97;;;3.52;82.78
43161;BME280;40968;52.342;5.528;2023-12-14T06:47:51;101639.09;;;4.65;82.34
43161;BME280;40968;52.342;5.528;2023-12-14T06:50:18;101357.28;;;2.85;81.94
43161;BME280;40968;52.342;5.528;2023-12-14T06:52:45;101460.16;;;3.49;82.10
43161;BME280;40968;52.342;5.528;2023-12-14T06:55:11;101444.75;;;3.36;82.34
43161;BME280;40968;52.342;5.528;2023-12-14T06:57:42;101662.31;;;4.60;82.66
43161;BME280;40968;52.342;5.528;2023-12-14T07:00:10;101462.97;;;3.45;82.51
43161;BME280;40968;52.342;5.528;2023-12-14T07:02:36;101660.50;;;4.61;82.71
43161;BME280;40968;52.342;5.528;2023-12-14T07:05:04;101665.78;;;4.62;82.74
43161;BME280;40968;52.342;5.528;2023-12-14T07:07:30;101342.13;;;2.63;82.33
43161;BME280;40968;52.342;5.528;2023-12-14T07:09:57;101679.97;;;4.61;82.35
43161;BME280;40968;52.342;5.528;2023-12-14T07:12:23;101485.47;;;3.33;82.17
43161;BME280;40968;52.342;5.528;2023-12-14T07:14:51;101475.72;;;3.34;82.46
43161;BME280;40968;52.342;5.528;2023-12-14T07:17:18;101701.31;;;4.58;82.36
43161;BME280;40968;52.342;5.528;2023-12-14T07:19:44;101525.56;;;3.49;82.91
43161;BME280;40968;52.342;5.528;2023-12-14T07:22:11;101654.63;;;4.27;82.93
43161;BME280;40968;52.342;5.528;2023-12-14T07:24:37;101512.81;;;3.34;82.93
43161;BME280;40968;52.342;5.528;2023-12-14T07:27:04;101533.50;;;3.49;83.26
43161;BME280;40968;52.342;5.528;2023-12-14T07:29:31;101504.06;;;3.31;83.11
43161;BME280;40968;52.342;5.528;2023-12-14T07:31:58;101729.50;;;4.62;82.82
43161;BME280;40968;52.342;5.528;2023-12-14T07:34:25;101531.78;;;3.48;82.61
43161;BME280;40968;52.342;5.528;2023-12-14T07:36:53;101331.19;;;2.19;82.45
43161;BME280;40968;52.342;5.528;2023-12-14T07:39:19;101539.44;;;3.30;82.19
43161;BME280;40968;52.342;5.528;2023-12-14T07:41:47;101515.00;;;3.21;81.76
43161;BME280;40968;52.342;5.528;2023-12-14T07:44:13;101734.16;;;4.56;81.79
43161;BME280;40968;52.342;5.528;2023-12-14T07:46:40;101653.59;;;4.05;81.31
43161;BME280;40968;52.342;5.528;2023-12-14T07:49:09;101522.22;;;3.17;81.28
43161;BME280;40968;52.342;5.528;2023-12-14T07:51:36;101565.22;;;3.52;81.22
43161;BME280;40968;52.342;5.528;2023-12-14T07:54:02;101719.63;;;4.41;81.36
43161;BME280;40968;52.342;5.528;2023-12-14T07:56:29;101681.47;;;4.18;81.59
43161;BME280;40968;52.342;5.528;2023-12-14T07:58:58;101667.28;;;4.19;81.82
43161;BME280;40968;52.342;5.528;2023-12-14T08:01:24;101526.06;;;3.34;81.57
43161;BME280;40968;52.342;5.528;2023-12-14T08:03:51;101540.75;;;3.44;81.92
43161;BME280;40968;52.342;5.528;2023-12-14T08:06:19;101675.34;;;4.16;81.86
43161;BME280;40968;52.342;5.528;2023-12-14T08:08:45;101559.91;;;3.52;81.56
43161;BME280;40968;52.342;5.528;2023-12-14T08:11:12;101559.91;;;3.52;81.74
43161;BME280;40968;52.342;5.528;2023-12-14T08:13:38;101501.09;;;3.14;81.46
43161;BME280;40968;52.342;5.528;2023-12-14T08:16:06;101377.31;;;2.39;81.30
43161;BME280;40968;52.342;5.528;2023-12-14T08:18:32;101763.03;;;4.65;81.25
43161;BME280;40968;52.342;5.528;2023-12-14T08:20:59;101590.13;;;3.46;81.29
43161;BME280;40968;52.342;5.528;2023-12-14T08:26:03;101375.16;;;2.23;81.70
43161;BME280;40968;52.342;5.528;2023-12-14T08:28:29;101453.31;;;2.62;81.48
43161;BME280;40968;52.342;5.528;2023-12-14T08:30:56;101604.13;;;3.52;81.80
43161;BME280;40968;52.342;5.528;2023-12-14T08:33:24;101644.13;;;3.71;82.02
43161;BME280;40968;52.342;5.528;2023-12-14T08:35:50;101608.56;;;3.51;81.15
43161;BME280;40968;52.342;5.528;2023-12-14T08:38:17;101627.00;;;3.54;81.25
43161;BME280;40968;52.342;5.528;2023-12-14T08:40:43;101791.03;;;4.48;81.51
43161;BME280;40968;52.342;5.528;2023-12-14T08:43:11;101813.47;;;4.67;81.15
43161;BME280;40968;52.342;5.528;2023-12-14T08:45:38;101493.56;;;2.73;80.75
43161;BME280;40968;52.342;5.528;2023-12-14T08:48:05;101661.69;;;3.75;80.73
43161;BME280;40968;52.342;5.528;2023-12-14T08:50:32;101733.91;;;4.10;80.98
43161;BME280;40968;52.342;5.528;2023-12-14T08:52:59;101624.41;;;3.53;81.01
43161;BME280;40968;52.342;5.528;2023-12-14T08:55:25;101831.94;;;4.70;81.35
43161;BME280;40968;52.342;5.528;2023-12-14T08:57:52;101837.91;;;4.76;81.80
43161;BME280;40968;52.342;5.528;2023-12-14T09:00:20;101527.50;;;2.89;81.46
43161;BME280;40968;52.342;5.528;2023-12-14T09:02:47;101634.84;;;3.57;81.79
43161;BME280;40968;52.342;5.528;2023-12-14T09:05:14;101821.50;;;4.63;81.94
43161;BME280;40968;52.342;5.528;2023-12-14T09:07:41;101856.34;;;4.81;81.80
43161;BME280;40968;52.342;5.528;2023-12-14T09:10:08;101670.75;;;3.68;81.93
43161;BME280;40968;52.342;5.528;2023-12-14T09:12:35;101579.72;;;3.13;82.33
43161;BME280;40968;52.342;5.528;2023-12-14T09:15:02;101594.59;;;3.18;81.79
43161;BME280;40968;52.342;5.528;2023-12-14T09:17:30;101790.88;;;4.26;82.20
43161;BME280;40968;52.342;5.528;2023-12-14T09:19:58;101672.72;;;3.61;82.02
43161;BME280;40968;52.342;5.528;2023-12-14T09:22:25;101862.56;;;4.80;82.27
43161;BME280;40968;52.342;5.528;2023-12-14T09:24:52;101709.13;;;3.84;82.05
43161;BME280;40968;52.342;5.528;2023-12-14T09:27:19;101609.34;;;3.25;81.53
43161;BME280;40968;52.342;5.528;2023-12-14T09:29:46;101827.91;;;4.58;82.12
43161;BME280;40968;52.342;5.528;2023-12-14T09:32:12;101677.69;;;3.72;82.00
43161;BME280;40968;52.342;5.528;2023-12-14T09:34:40;101691.78;;;3.74;81.75
43161;BME280;40968;52.342;5.528;2023-12-14T09:37:07;101677.25;;;3.57;81.99
43161;BME280;40968;52.342;5.528;2023-12-14T09:39:34;101638.03;;;3.40;82.40
43161;BME280;40968;52.342;5.528;2023-12-14T09:42:02;101893.88;;;4.97;82.52
43161;BME280;40968;52.342;5.528;2023-12-14T09:44:29;101696.97;;;3.77;82.14
43161;BME280;40968;52.342;5.528;2023-12-14T09:46:57;101753.63;;;4.03;82.69
43161;BME280;40968;52.342;5.528;2023-12-14T09:49:26;101722.22;;;3.89;81.85
43161;BME280;40968;52.342;5.528;2023-12-14T09:51:56;101726.56;;;3.91;81.56
43161;BME280;40968;52.342;5.528;2023-12-14T09:54:22;101705.75;;;3.79;81.23
43161;BME280;40968;52.342;5.528;2023-12-14T09:56:49;101917.63;;;5.02;81.53
43161;BME280;40968;52.342;5.528;2023-12-14T09:59:18;101750.59;;;3.87;81.22
43161;BME280;40968;52.342;5.528;2023-12-14T10:01:45;101882.91;;;4.81;82.20
43161;BME280;40968;52.342;5.528;2023-12-14T10:04:12;101757.06;;;4.05;82.10
43161;BME280;40968;52.342;5.528;2023-12-14T10:06:41;101710.47;;;3.69;81.59
43161;BME280;40968;52.342;5.528;2023-12-14T10:09:10;101803.25;;;4.27;81.04
43161;BME280;40968;52.342;5.528;2023-12-14T10:11:39;101778.88;;;4.14;81.00
43161;BME280;40968;52.342;5.528;2023-12-14T10:14:18;101940.00;;;5.21;81.33
43161;BME280;40968;52.342;5.528;2023-12-14T10:16:46;101952.97;;;5.30;81.31
43161;BME280;40968;52.342;5.528;2023-12-14T10:19:13;101766.09;;;4.27;80.94
43161;BME280;40968;52.342;5.528;2023-12-14T10:21:40;101820.59;;;4.64;80.85
43161;BME280;40968;52.342;5.528;2023-12-14T10:24:07;101953.34;;;5.45;79.33
43161;BME280;40968;52.342;5.528;2023-12-14T10:26:35;101760.56;;;4.34;78.65
43161;BME280;40968;52.342;5.528;2023-12-14T10:29:01;101768.25;;;4.41;79.44
43161;BME280;40968;52.342;5.528;2023-12-14T10:31:30;101824.47;;;4.81;79.33
43161;BME280;40968;52.342;5.528;2023-12-14T10:33:56;101773.81;;;4.60;79.55
43161;BME280;40968;52.342;5.528;2023-12-14T10:36:25;101765.84;;;4.60;79.23
43161;BME280;40968;52.342;5.528;2023-12-14T10:38:53;101877.84;;;5.25;78.79
43161;BME280;40968;52.342;5.528;2023-12-14T10:41:21;101942.56;;;5.75;77.24
43161;BME280;40968;52.342;5.528;2023-12-14T10:43:50;101957.72;;;5.73;77.13
43161;BME280;40968;52.342;5.528;2023-12-14T10:46:18;101810.44;;;5.03;76.97
43161;BME280;40968;52.342;5.528;2023-12-14T10:48:47;101788.91;;;4.85;76.84
43161;BME280;40968;52.342;5.528;2023-12-14T10:51:14;101770.25;;;4.61;76.02
43161;BME280;40968;52.342;5.528;2023-12-14T10:53:41;101937.75;;;5.61;75.80
43161;BME280;40968;52.342;5.528;2023-12-14T10:56:13;101963.03;;;5.73;75.78
43161;BME280;40968;52.342;5.528;2023-12-14T10:58:45;101855.91;;;4.93;75.66
43161;BME280;40968;52.342;5.528;2023-12-14T11:01:15;101901.47;;;5.33;75.58
43161;BME280;40968;52.342;5.528;2023-12-14T11:03:43;101978.66;;;5.82;75.54
43161;BME280;40968;52.342;5.528;2023-12-14T11:06:32;101920.19;;;5.55;76.76
43161;BME280;40968;52.342;5.528;2023-12-14T11:09:00;101830.97;;;4.97;75.61
43161;BME280;40968;52.342;5.528;2023-12-14T11:11:39;101817.38;;;4.81;75.50
43161;BME280;40968;52.342;5.528;2023-12-14T11:14:08;101815.69;;;4.79;75.52
43161;BME280;40968;52.342;5.528;2023-12-14T11:16:38;101985.75;;;5.81;75.58
43161;BME280;40968;52.342;5.528;2023-12-14T11:19:29;102000.59;;;5.89;75.66
43161;BME280;40968;52.342;5.528;2023-12-14T11:22:12;101953.53;;;5.65;75.50
43161;BME280;40968;52.342;5.528;2023-12-14T11:24:45;102003.19;;;5.90;75.40
43161;BME280;40968;52.342;5.528;2023-12-14T11:27:20;101728.69;;;4.34;74.79
43161;BME280;40968;52.342;5.528;2023-12-14T11:29:47;101826.56;;;4.96;75.13
43161;BME280;40968;52.342;5.528;2023-12-14T11:32:16;101888.88;;;5.40;75.50
43161;BME280;40968;52.342;5.528;2023-12-14T11:34:45;101734.38;;;4.50;75.38
43161;BME280;40968;52.342;5.528;2023-12-14T11:37:12;101984.53;;;6.17;75.28
43161;BME280;40968;52.342;5.528;2023-12-14T11:39:39;101751.50;;;4.91;74.79
43161;BME280;40968;52.342;5.528;2023-12-14T11:42:06;101786.72;;;5.22;74.19
43161;BME280;40968;52.342;5.528;2023-12-14T11:44:35;101994.25;;;6.64;73.64
43161;BME280;40968;52.342;5.528;2023-12-14T11:47:02;101918.31;;;6.32;73.28
43161;BME280;40968;52.342;5.528;2023-12-14T11:49:30;101852.09;;;6.00;72.88
43161;BME280;40968;52.342;5.528;2023-12-14T11:51:57;101776.59;;;5.55;73.29
43161;BME280;40968;52.342;5.528;2023-12-14T11:54:24;101841.16;;;6.08;72.64
43161;BME280;40968;52.342;5.528;2023-12-14T11:56:52;102035.53;;;7.20;72.71
43161;BME280;40968;52.342;5.528;2023-12-14T11:59:19;102000.34;;;7.12;72.82
43161;BME280;40968;52.342;5.528;2023-12-14T12:01:56;102026.38;;;7.27;72.73
43161;BME280;40968;52.342;5.528;2023-12-14T12:04:23;101883.19;;;6.44;72.89
43161;BME280;40968;52.342;5.528;2023-12-14T12:07:00;101834.78;;;6.12;72.23
43161;BME280;40968;52.342;5.528;2023-12-14T12:09:37;101874.75;;;6.33;71.92
43161;BME280;40968;52.342;5.528;2023-12-14T12:12:08;101849.78;;;6.13;71.38
43161;BME280;40968;52.342;5.528;2023-12-14T12:14:35;101924.97;;;6.42;71.26
43161;BME280;40968;52.342;5.528;2023-12-14T12:17:03;102043.13;;;7.09;71.06
43161;BME280;40968;52.342;5.528;2023-12-14T12:19:32;102016.34;;;6.90;71.38
43161;BME280;40968;52.342;5.528;2023-12-14T12:22:00;101788.28;;;5.51;71.62
43161;BME280;40968;52.342;5.528;2023-12-14T12:24:26;101880.66;;;5.93;71.71
43161;BME280;40968;52.342;5.528;2023-12-14T12:26:53;101685.31;;;4.85;71.22
43161;BME280;40968;52.342;5.528;2023-12-14T12:29:20;101833.34;;;5.56;71.52
43161;BME280;40968;52.342;5.528;2023-12-14T12:31:47;101818.69;;;5.44;71.79
43161;BME280;40968;52.342;5.528;2023-12-14T12:34:14;102034.44;;;6.82;72.04
43161;BME280;40968;52.342;5.528;2023-12-14T12:36:41;101887.97;;;5.88;72.39
43161;BME280;40968;52.342;5.528;2023-12-14T12:39:09;101823.91;;;5.47;72.29
43161;BME280;40968;52.342;5.528;2023-12-14T12:41:35;101917.91;;;5.93;72.41
43161;BME280;40968;52.342;5.528;2023-12-14T12:44:03;101833.75;;;5.43;72.32
43161;BME280;40968;52.342;5.528;2023-12-14T12:46:32;101817.41;;;5.30;71.92
43161;BME280;40968;52.342;5.528;2023-12-14T12:49:00;101875.63;;;5.62;72.26
43161;BME280;40968;52.342;5.528;2023-12-14T12:51:27;102032.25;;;6.45;72.64
43161;BME280;40968;52.342;5.528;2023-12-14T12:53:55;101847.47;;;5.32;72.92
43161;BME280;40968;52.342;5.528;2023-12-14T12:56:23;101799.53;;;5.10;72.80
43161;BME280;40968;52.342;5.528;2023-12-14T12:58:50;101870.84;;;5.48;72.99
43161;BME280;40968;52.342;5.528;2023-12-14T13:01:19;101897.50;;;5.70;73.03
43161;BME280;40968;52.342;5.528;2023-12-14T13:03:46;102057.31;;;6.63;73.49